Time;durP1;ratioP1;P1;durP2;ratioP2;P2;SDS_P1;SDS_P2;PMS_P1;PMS_P2;Temp;Humidity;BMP_temperature;BMP_pressure;BME280_temperature;BME280_humidity;BME280_pressure;Samples;Min_cycle;Max_cycle;Signal;HPM_P1;HPM_P2
2023/07/20 00:00:39;;;;;;;4.22;1.63;;;;;;;19.70;53.29;95884.88;2090496;28;20063;-62
2023/07/20 00:01:47;;;;;;;5.82;1.83;;;;;;;19.71;53.00;95890.03;2090415;28;20048;-62
2023/07/20 00:02:50;;;;;;;6.45;1.80;;;;;;;19.63;53.24;95870.56;2090037;28;20053;-63
2023/07/20 00:04:00;;;;;;;5.70;1.70;;;;;;;19.72;53.01;95882.97;2090827;28;20397;-63
2023/07/20 00:05:01;;;;;;;3.13;1.60;;;;;;;19.71;53.00;95882.13;2090159;28;20520;-62
2023/07/20 00:06:04;;;;;;;7.32;2.10;;;;;;;19.65;52.50;95880.00;2090524;28;20049;-62
2023/07/20 00:07:05;;;;;;;7.43;1.90;;;;;;;19.63;52.86;95881.09;2090571;28;20448;-63
2023/07/20 00:08:06;;;;;;;3.28;1.60;;;;;;;19.61;52.60;95879.41;2090537;28;20052;-63
2023/07/20 00:09:07;;;;;;;4.90;1.90;;;;;;;19.56;53.28;95878.13;2090577;28;20052;-63
2023/07/20 00:10:09;;;;;;;5.20;1.70;;;;;;;19.53;52.49;95870.50;2090752;28;20072;-62
2023/07/20 00:11:10;;;;;;;4.43;1.85;;;;;;;19.58;52.13;95884.94;2090332;28;20051;-62
2023/07/20 00:12:11;;;;;;;5.55;1.90;;;;;;;19.56;53.03;95880.75;2090915;28;20045;-62
2023/07/20 00:13:12;;;;;;;5.85;1.83;;;;;;;19.47;53.33;95868.38;2090860;28;20056;-62
2023/07/20 00:14:13;;;;;;;3.78;1.63;;;;;;;19.54;52.73;95883.53;2090560;28;20045;-62
2023/07/20 00:15:14;;;;;;;6.78;1.98;;;;;;;19.54;53.16;95882.69;2090472;28;20052;-62
2023/07/20 00:16:16;;;;;;;4.25;1.60;;;;;;;19.52;52.45;95880.19;2090423;28;20048;-62
2023/07/20 00:17:17;;;;;;;7.75;1.90;;;;;;;19.51;52.12;95880.31;2090247;28;20075;-62
2023/07/20 00:18:21;;;;;;;6.13;1.77;;;;;;;19.52;53.39;95887.28;2090718;28;20051;-62
2023/07/20 00:19:23;;;;;;;4.70;1.70;;;;;;;19.44;52.29;95874.75;2090328;28;20045;-62
2023/07/20 00:20:25;;;;;;;7.55;2.03;;;;;;;19.47;52.55;95889.47;2090421;28;20461;-62
2023/07/20 00:21:26;;;;;;;5.22;1.98;;;;;;;19.47;52.70;95885.03;2090255;28;20052;-62
2023/07/20 00:22:27;;;;;;;6.65;1.80;;;;;;;19.48;52.54;95884.03;2090586;28;20052;-62
2023/07/20 00:23:28;;;;;;;5.55;1.77;;;;;;;19.49;52.60;95888.38;2090699;28;20429;-62
2023/07/20 00:24:29;;;;;;;6.85;1.80;;;;;;;19.48;53.05;95883.22;2090483;28;20056;-62
2023/07/20 00:25:30;;;;;;;4.55;1.67;;;;;;;19.44;52.39;95879.19;2090471;28;20131;-62
2023/07/20 00:26:31;;;;;;;5.20;2.00;;;;;;;19.34;53.12;95873.84;2090578;28;20599;-62
2023/07/20 00:27:33;;;;;;;5.43;1.83;;;;;;;19.40;52.82;95883.84;2089810;28;20049;-62
2023/07/20 00:28:34;;;;;;;4.88;1.80;;;;;;;19.41;52.86;95885.53;2089658;28;20459;-62
2023/07/20 00:29:35;;;;;;;4.65;1.92;;;;;;;19.41;53.11;95888.19;2090885;28;20049;-62
2023/07/20 00:30:38;;;;;;;3.65;1.60;;;;;;;19.36;53.06;95882.47;2088950;28;20460;-62
2023/07/20 00:31:39;;;;;;;4.45;1.90;;;;;;;19.34;52.50;95887.84;2081435;28;20129;-62
2023/07/20 00:32:40;;;;;;;5.90;1.58;;;;;;;19.33;52.37;95882.72;2089602;28;20057;-62
2023/07/20 00:33:41;;;;;;;6.28;1.52;;;;;;;19.36;53.39;95893.00;2089812;28;20061;-62
2023/07/20 00:34:42;;;;;;;4.97;1.50;;;;;;;19.33;52.10;95883.56;2089319;28;20164;-62
2023/07/20 00:35:43;;;;;;;3.28;1.60;;;;;;;19.35;53.05;95884.25;2090197;28;20036;-62
2023/07/20 00:36:44;;;;;;;8.98;2.28;;;;;;;19.34;52.18;95879.94;2090001;28;20473;-62
2023/07/20 00:37:45;;;;;;;6.90;1.58;;;;;;;19.29;52.59;95889.19;2089738;28;20041;-62
2023/07/20 00:38:47;;;;;;;6.50;1.90;;;;;;;19.29;52.01;95894.47;2089702;28;20045;-62
2023/07/20 00:39:48;;;;;;;3.58;1.50;;;;;;;19.29;52.29;95900.56;2088709;28;20505;-62
2023/07/20 00:40:49;;;;;;;5.40;1.70;;;;;;;19.25;52.96;95893.06;2089553;28;20270;-62
2023/07/20 00:41:52;;;;;;;4.95;1.20;;;;;;;19.21;52.86;95896.91;2090416;28;20048;-62
2023/07/20 00:42:53;;;;;;;4.32;1.60;;;;;;;19.20;52.45;95903.97;2089379;28;20122;-62
2023/07/20 00:43:58;;;;;;;5.20;1.60;;;;;;;19.18;52.68;95901.44;2082356;28;20056;-62
2023/07/20 00:45:00;;;;;;;3.53;1.73;;;;;;;19.17;53.12;95902.41;2090089;28;20444;-63
2023/07/20 00:46:02;;;;;;;4.32;1.80;;;;;;;19.16;53.13;95905.16;2089514;28;20508;-62
2023/07/20 00:47:04;;;;;;;4.65;1.52;;;;;;;19.07;52.52;95895.41;2089658;28;20063;-62
2023/07/20 00:48:08;;;;;;;3.40;1.35;;;;;;;19.13;52.36;95897.53;2090143;28;20065;-62
2023/07/20 00:49:09;;;;;;;4.35;1.60;;;;;;;19.11;52.25;95897.69;2090163;28;20058;-63
2023/07/20 00:50:10;;;;;;;2.70;1.60;;;;;;;19.13;52.10;95894.91;2089773;28;20491;-62
2023/07/20 00:51:11;;;;;;;4.35;1.50;;;;;;;19.12;51.75;95901.97;2081331;28;20428;-62
2023/07/20 00:52:13;;;;;;;5.35;1.63;;;;;;;19.02;51.29;95881.81;2089400;28;20056;-62
2023/07/20 00:53:14;;;;;;;4.50;1.38;;;;;;;19.09;51.57;95896.13;2089067;28;20385;-62
2023/07/20 00:54:16;;;;;;;4.32;1.27;;;;;;;19.03;52.13;95881.69;2089741;28;20053;-62
2023/07/20 00:55:18;;;;;;;4.45;1.30;;;;;;;19.13;51.33;95895.72;2081163;28;20045;-62
2023/07/20 00:56:19;;;;;;;5.03;1.70;;;;;;;19.10;52.24;95895.16;2073060;28;20049;-62
2023/07/20 00:57:20;;;;;;;3.85;1.52;;;;;;;19.08;51.74;95892.66;2081399;28;20079;-62
2023/07/20 00:58:22;;;;;;;2.95;1.38;;;;;;;19.08;51.60;95897.06;2090134;28;20060;-62
2023/07/20 00:59:23;;;;;;;3.28;1.40;;;;;;;18.97;51.72;95892.69;2090001;28;20045;-63
2023/07/20 01:00:24;;;;;;;4.13;1.58;;;;;;;19.08;51.83;95897.06;2090028;28;20048;-62
2023/07/20 01:01:25;;;;;;;2.35;1.35;;;;;;;19.06;51.16;95897.22;2089147;28;20056;-62
2023/07/20 01:02:26;;;;;;;4.38;1.33;;;;;;;19.07;51.43;95901.50;2089459;28;20417;-62
2023/07/20 01:03:28;;;;;;;3.13;1.40;;;;;;;19.06;52.15;95901.63;2090058;28;20053;-62
2023/07/20 01:04:29;;;;;;;4.30;1.42;;;;;;;19.00;51.51;95900.34;2089667;28;20053;-62
2023/07/20 01:05:45;;;;;;;3.70;1.40;;;;;;;19.04;50.90;95903.56;2081515;28;20629;-62
2023/07/20 01:06:51;;;;;;;3.33;1.27;;;;;;;19.01;50.96;95907.28;2060370;28;20043;-61
2023/07/20 01:07:59;;;;;;;3.20;1.42;;;;;;;19.00;51.46;95900.34;2075120;28;20058;-62
2023/07/20 01:09:19;;;;;;;4.20;1.92;;;;;;;19.02;51.61;95897.59;2072890;28;20445;-61
2023/07/20 01:10:29;;;;;;;2.17;1.30;;;;;;;19.00;51.42;95891.63;2074565;28;20062;-61
2023/07/20 01:11:49;;;;;;;2.72;1.42;;;;;;;18.98;51.59;95894.38;2082243;28;20492;-62
2023/07/20 01:12:53;;;;;;;6.28;2.10;;;;;;;18.95;51.78;95903.38;2073004;28;20579;-62
2023/07/20 01:13:55;;;;;;;5.43;1.83;;;;;;;18.86;51.57;95892.75;2065787;28;20045;-62
2023/07/20 01:14:56;;;;;;;3.63;1.65;;;;;;;18.94;52.54;95909.56;2089041;28;20493;-62
2023/07/20 01:15:58;;;;;;;2.92;1.42;;;;;;;18.95;52.75;95905.13;2073191;28;20060;-62
2023/07/20 01:16:59;;;;;;;3.70;1.30;;;;;;;18.90;52.15;95902.09;2073256;28;20065;-62
2023/07/20 01:18:01;;;;;;;3.42;1.60;;;;;;;18.86;51.71;95892.75;2090237;28;20476;-62
2023/07/20 01:19:02;;;;;;;3.97;1.30;;;;;;;18.92;52.54;95901.00;2089348;28;20044;-62
2023/07/20 01:20:03;;;;;;;5.03;1.65;;;;;;;18.92;52.73;95901.00;2089353;28;20048;-62
2023/07/20 01:21:08;;;;;;;4.35;1.50;;;;;;;18.77;52.09;95883.81;2090311;28;20049;-62
2023/07/20 01:22:33;;;;;;;7.13;1.20;;;;;;;18.78;51.71;95888.13;2089459;28;20056;-62
2023/07/20 01:24:00;;;;;;;4.78;1.60;;;;;;;18.77;52.24;95885.63;2068382;28;20132;-62
2023/07/20 01:25:24;;;;;;;2.50;1.27;;;;;;;18.85;52.35;95897.19;2073464;28;20045;-63
2023/07/20 01:26:47;;;;;;;5.57;1.50;;;;;;;18.82;52.55;95896.59;2081734;28;20531;-62
2023/07/20 01:28:11;;;;;;;4.75;1.30;;;;;;;18.77;53.34;95907.50;2075875;28;20416;-62
2023/07/20 01:29:21;;;;;;;4.35;1.52;;;;;;;18.76;52.65;95894.47;2076131;28;20045;-62
2023/07/20 01:30:32;;;;;;;6.78;1.50;;;;;;;18.72;52.86;95892.06;2085019;28;20048;-62
2023/07/20 01:31:37;;;;;;;6.50;1.63;;;;;;;18.73;53.58;95901.59;2081032;28;20045;-62
2023/07/20 01:32:39;;;;;;;7.95;1.83;;;;;;;18.72;53.16;95897.31;2081651;28;20046;-62
2023/07/20 01:33:41;;;;;;;3.30;1.70;;;;;;;18.70;52.61;95896.59;2080938;28;20076;-62
2023/07/20 01:34:42;;;;;;;4.05;1.55;;;;;;;18.69;53.16;95891.47;2081378;28;20054;-62
2023/07/20 01:35:45;;;;;;;5.57;1.42;;;;;;;18.68;53.38;95902.94;2064988;28;20386;-62
2023/07/20 01:36:46;;;;;;;2.97;1.45;;;;;;;18.70;52.99;95896.59;2080843;28;20084;-62
2023/07/20 01:37:47;;;;;;;4.25;1.52;;;;;;;18.67;53.45;95899.47;2088693;28;20060;-62
2023/07/20 01:38:48;;;;;;;2.60;1.25;;;;;;;18.63;53.65;95905.09;2089423;28;20048;-62
2023/07/20 01:39:49;;;;;;;6.07;1.70;;;;;;;18.65;52.99;95905.81;2081206;28;20049;-62
2023/07/20 01:40:50;;;;;;;3.17;1.55;;;;;;;18.66;53.08;95903.09;2088998;28;20451;-62
2023/07/20 01:41:51;;;;;;;7.63;1.70;;;;;;;18.64;53.56;95907.63;2089567;28;20053;-62
2023/07/20 01:42:53;;;;;;;3.65;1.38;;;;;;;18.55;53.13;95881.22;2081487;28;20061;-62
2023/07/20 01:43:58;;;;;;;4.38;1.90;;;;;;;18.61;53.11;95893.91;2072833;28;20050;-62
2023/07/20 01:44:59;;;;;;;3.45;1.50;;;;;;;18.60;53.32;95900.94;2088957;28;20049;-62
2023/07/20 01:46:00;;;;;;;3.90;1.50;;;;;;;18.58;53.62;95897.59;2090094;28;20381;-62
2023/07/20 01:47:02;;;;;;;2.38;1.25;;;;;;;18.57;53.42;95906.44;2089694;28;20045;-62
2023/07/20 01:48:03;;;;;;;3.50;1.45;;;;;;;18.56;53.64;95906.56;2089742;28;20041;-63
2023/07/20 01:49:04;;;;;;;4.22;1.13;;;;;;;18.57;52.92;95913.50;2089031;28;20052;-62
2023/07/20 01:50:07;;;;;;;3.53;1.73;;;;;;;18.49;53.66;95908.84;2072675;28;20053;-62
2023/07/20 01:51:08;;;;;;;3.72;1.60;;;;;;;18.55;53.77;95913.63;2081105;28;20477;-62
2023/07/20 01:52:09;;;;;;;4.40;1.80;;;;;;;18.56;52.92;95911.84;2089513;28;20064;-62
2023/07/20 01:53:11;;;;;;;2.92;1.33;;;;;;;18.55;53.30;95908.38;2089394;28;20060;-62
2023/07/20 01:54:12;;;;;;;3.28;1.42;;;;;;;18.52;53.64;95903.34;2089814;28;20475;-62
2023/07/20 01:55:13;;;;;;;4.25;1.30;;;;;;;18.45;53.66;95894.28;2088854;28;20060;-62
2023/07/20 01:56:14;;;;;;;3.92;1.55;;;;;;;18.54;54.04;95908.50;2089342;28;20045;-62
2023/07/20 01:57:15;;;;;;;2.65;1.30;;;;;;;18.51;53.44;95913.03;2080832;28;20049;-63
2023/07/20 01:58:16;;;;;;;4.40;1.33;;;;;;;18.49;53.66;95914.09;2080645;28;20424;-62
2023/07/20 01:59:17;;;;;;;3.97;1.45;;;;;;;18.50;54.29;95910.53;2089017;28;20052;-62
2023/07/20 02:00:21;;;;;;;5.47;1.40;;;;;;;18.46;53.44;95904.66;2080265;28;20500;-62
2023/07/20 02:01:22;;;;;;;2.58;1.38;;;;;;;18.47;53.85;95910.75;2089349;28;20053;-63
2023/07/20 02:02:26;;;;;;;6.65;1.60;;;;;;;18.48;53.89;95913.28;2096843;28;20056;-62
2023/07/20 02:03:27;;;;;;;5.80;1.40;;;;;;;18.45;54.64;95910.06;2089716;28;20057;-62
2023/07/20 02:04:28;;;;;;;6.55;1.90;;;;;;;18.43;54.28;95911.97;2088987;28;20057;-62
2023/07/20 02:05:29;;;;;;;5.13;1.52;;;;;;;18.41;53.83;95906.81;2081597;28;20049;-62
2023/07/20 02:06:31;;;;;;;3.05;1.50;;;;;;;18.29;53.50;95895.50;2088689;28;20053;-62
2023/07/20 02:07:33;;;;;;;5.53;1.67;;;;;;;18.28;53.71;95899.09;2089456;28;20049;-62
2023/07/20 02:08:34;;;;;;;2.95;1.30;;;;;;;18.35;54.77;95909.94;2089647;28;20469;-62
2023/07/20 02:09:35;;;;;;;4.32;1.40;;;;;;;18.36;55.12;95913.41;2088458;28;20593;-62
2023/07/20 02:10:37;;;;;;;5.30;1.40;;;;;;;18.35;55.19;95919.63;2089547;28;20045;-62
2023/07/20 02:11:38;;;;;;;4.68;1.48;;;;;;;18.34;54.71;95915.34;2091283;28;20093;-62
2023/07/20 02:12:39;;;;;;;3.10;1.30;;;;;;;18.34;55.31;95921.44;2090537;28;20164;-62
2023/07/20 02:13:41;;;;;;;3.35;1.40;;;;;;;18.32;54.57;95917.25;2090670;28;20409;-62
2023/07/20 02:14:42;;;;;;;3.22;1.52;;;;;;;18.32;55.36;95917.25;2090908;28;20057;-62
2023/07/20 02:15:43;;;;;;;6.70;1.20;;;;;;;18.29;54.50;95918.34;2082900;28;20072;-63
2023/07/20 02:16:45;;;;;;;3.67;1.50;;;;;;;18.27;54.97;95913.19;2082095;28;20045;-62
2023/07/20 02:17:46;;;;;;;4.20;1.65;;;;;;;18.25;55.52;95915.09;2082407;28;20049;-62
2023/07/20 02:18:47;;;;;;;2.83;1.52;;;;;;;18.21;55.01;95921.56;2090673;28;20044;-62
2023/07/20 02:19:55;;;;;;;4.20;1.45;;;;;;;18.12;55.33;95900.41;2091356;28;20045;-62
2023/07/20 02:20:57;;;;;;;3.33;1.55;;;;;;;18.16;55.03;95915.84;2091286;28;20053;-63
2023/07/20 02:21:58;;;;;;;3.22;1.48;;;;;;;18.14;55.61;95915.13;2091244;28;20453;-62
2023/07/20 02:22:59;;;;;;;4.38;1.30;;;;;;;18.11;56.02;95915.34;2091246;28;20057;-63
2023/07/20 02:24:00;;;;;;;4.38;1.75;;;;;;;18.07;55.79;95911.31;2090898;28;20052;-62
2023/07/20 02:25:01;;;;;;;4.05;1.38;;;;;;;18.01;55.76;95909.97;2089632;28;20540;-62
2023/07/20 02:26:02;;;;;;;1.98;1.35;;;;;;;17.93;56.15;95911.53;2090636;28;20057;-62
2023/07/20 02:27:04;;;;;;;6.78;1.70;;;;;;;17.89;55.84;95910.94;2092069;28;20053;-63
2023/07/20 02:28:07;;;;;;;3.28;1.38;;;;;;;17.89;55.75;95912.75;2090465;28;20049;-62
2023/07/20 02:29:08;;;;;;;3.75;1.38;;;;;;;17.86;56.68;95908.56;2090806;28;20068;-62
2023/07/20 02:30:09;;;;;;;3.35;1.40;;;;;;;17.84;56.95;95916.56;2090916;28;20068;-63
2023/07/20 02:31:10;;;;;;;3.85;1.30;;;;;;;17.82;56.39;95915.81;2090915;28;20049;-63
2023/07/20 02:32:11;;;;;;;4.32;1.40;;;;;;;17.85;57.04;95920.00;2090604;28;20479;-63
2023/07/20 02:33:12;;;;;;;3.33;1.50;;;;;;;17.82;55.81;95920.25;2090061;28;20052;-63
2023/07/20 02:34:13;;;;;;;4.32;1.35;;;;;;;17.83;55.74;95916.69;2090481;28;20052;-62
2023/07/20 02:35:15;;;;;;;4.43;1.63;;;;;;;17.79;55.97;95916.06;2082564;28;20381;-63
2023/07/20 02:36:17;;;;;;;3.42;1.63;;;;;;;17.78;56.26;95922.25;2082413;28;20452;-63
2023/07/20 02:37:18;;;;;;;4.28;1.88;;;;;;;17.74;56.84;95912.94;2090478;28;20048;-63
2023/07/20 02:38:19;;;;;;;3.88;1.95;;;;;;;17.75;56.57;95919.88;2090432;28;20068;-63
2023/07/20 02:39:21;;;;;;;4.28;1.60;;;;;;;17.74;56.83;95922.59;2091477;28;20155;-63
2023/07/20 02:40:23;;;;;;;5.97;1.83;;;;;;;17.73;56.90;95913.06;2090824;28;20083;-63
2023/07/20 02:41:24;;;;;;;3.78;1.42;;;;;;;17.75;56.38;95921.63;2090229;28;20064;-63
2023/07/20 02:42:25;;;;;;;4.00;2.00;;;;;;;17.77;56.23;95925.81;2091097;28;20048;-63
2023/07/20 02:43:27;;;;;;;3.55;1.50;;;;;;;17.80;56.63;95922.16;2090808;28;20073;-63
2023/07/20 02:44:28;;;;;;;3.33;1.42;;;;;;;17.74;56.57;95915.56;2090669;28;20052;-63
2023/07/20 02:45:29;;;;;;;5.43;2.00;;;;;;;17.74;56.58;95917.34;2090192;28;20499;-63
2023/07/20 02:46:30;;;;;;;6.72;1.90;;;;;;;17.80;56.39;95923.00;2099138;28;20044;-63
2023/07/20 02:47:33;;;;;;;4.85;1.90;;;;;;;17.79;57.53;95925.75;2090028;28;20049;-63
2023/07/20 02:48:34;;;;;;;8.55;1.70;;;;;;;17.83;56.99;95928.03;2082180;28;20064;-63
2023/07/20 02:49:35;;;;;;;4.50;1.73;;;;;;;17.80;56.20;95922.16;2090430;28;20053;-62
2023/07/20 02:50:37;;;;;;;4.03;1.63;;;;;;;17.83;55.81;95930.66;2091244;28;20465;-62
2023/07/20 02:51:38;;;;;;;5.20;2.13;;;;;;;17.84;56.52;95931.47;2091170;28;20092;-63
2023/07/20 02:52:39;;;;;;;6.32;1.75;;;;;;;17.83;56.60;95930.66;2091064;28;20043;-62
2023/07/20 02:53:41;;;;;;;5.25;1.83;;;;;;;17.83;55.89;95929.81;2091038;28;20068;-63
2023/07/20 02:54:42;;;;;;;2.92;1.70;;;;;;;17.81;56.22;95929.94;2090539;28;20061;-62
2023/07/20 02:55:43;;;;;;;3.95;1.85;;;;;;;17.74;56.76;95919.97;2089393;28;20124;-63
2023/07/20 02:56:44;;;;;;;6.30;2.15;;;;;;;17.76;57.76;95932.03;2082432;28;20049;-63
2023/07/20 02:57:45;;;;;;;8.18;2.03;;;;;;;17.72;56.73;95925.38;2090123;28;20048;-62
2023/07/20 02:58:46;;;;;;;4.75;2.13;;;;;;;17.68;57.19;95928.34;2091028;28;20063;-62
2023/07/20 02:59:47;;;;;;;4.45;1.83;;;;;;;17.65;56.94;95926.78;2090954;28;20499;-62
2023/07/20 03:00:49;;;;;;;3.60;1.63;;;;;;;17.62;57.50;95935.72;2091425;28;20041;-63
2023/07/20 03:01:50;;;;;;;3.67;1.80;;;;;;;17.61;57.79;95933.22;2089915;28;20045;-63
2023/07/20 03:02:55;;;;;;;3.47;1.60;;;;;;;17.55;57.53;95929.25;2090332;28;20048;-63
2023/07/20 03:03:56;;;;;;;4.28;1.75;;;;;;;17.55;57.51;95931.06;2089967;28;20053;-63
2023/07/20 03:05:00;;;;;;;5.80;1.92;;;;;;;17.54;57.70;95934.66;2090049;28;20063;-63
2023/07/20 03:06:02;;;;;;;4.18;2.13;;;;;;;17.56;58.08;95932.72;2082083;28;20061;-62
2023/07/20 03:07:04;;;;;;;5.57;2.08;;;;;;;17.49;57.91;95919.22;2081822;28;20053;-62
2023/07/20 03:08:06;;;;;;;3.05;1.75;;;;;;;17.59;58.63;95932.50;2089285;28;20099;-63
2023/07/20 03:09:09;;;;;;;3.13;1.42;;;;;;;17.49;57.89;95934.97;2089945;28;20053;-62
2023/07/20 03:10:10;;;;;;;5.78;2.10;;;;;;;17.52;57.65;95941.78;2090868;28;20045;-62
2023/07/20 03:11:11;;;;;;;4.80;2.10;;;;;;;17.53;57.41;95940.81;2090183;28;20053;-62
2023/07/20 03:12:12;;;;;;;5.00;1.70;;;;;;;17.54;58.36;95934.66;2082089;28;20049;-62
2023/07/20 03:13:14;;;;;;;3.78;2.10;;;;;;;17.55;57.95;95931.06;2082019;28;20053;-62
2023/07/20 03:14:15;;;;;;;10.35;2.20;;;;;;;17.53;58.54;95943.44;2081373;28;20187;-62
2023/07/20 03:15:16;;;;;;;5.25;1.98;;;;;;;17.51;57.99;95938.34;2082269;28;20053;-62
2023/07/20 03:16:18;;;;;;;5.43;1.98;;;;;;;17.53;58.06;95940.81;2081977;28;20050;-62
2023/07/20 03:17:20;;;;;;;4.47;1.92;;;;;;;17.52;58.82;95939.16;2082098;28;20053;-63
2023/07/20 03:18:21;;;;;;;5.75;2.20;;;;;;;17.53;58.67;95951.34;2082022;28;20048;-62
2023/07/20 03:19:22;;;;;;;6.10;2.28;;;;;;;17.54;58.11;95942.53;2082453;28;20052;-63
2023/07/20 03:20:24;;;;;;;6.50;2.03;;;;;;;17.44;58.34;95931.03;2090302;28;20439;-62
2023/07/20 03:21:25;;;;;;;6.82;2.38;;;;;;;17.54;57.87;95939.91;2090890;28;20049;-63
2023/07/20 03:22:26;;;;;;;7.38;2.17;;;;;;;17.53;58.64;95943.44;2088614;28;20056;-62
2023/07/20 03:23:27;;;;;;;7.18;2.17;;;;;;;17.53;58.68;95943.44;2082016;28;20470;-62
2023/07/20 03:24:28;;;;;;;5.70;2.15;;;;;;;17.53;57.92;95952.16;2081847;28;20049;-62
2023/07/20 03:25:30;;;;;;;5.72;2.20;;;;;;;17.53;57.96;95948.72;2081975;28;20053;-63
2023/07/20 03:26:31;;;;;;;4.72;2.28;;;;;;;17.51;58.39;95942.72;2089536;28;20688;-63
2023/07/20 03:27:33;;;;;;;6.03;1.90;;;;;;;17.50;58.12;95941.06;2089515;28;20053;-63
2023/07/20 03:28:36;;;;;;;6.00;1.73;;;;;;;17.39;59.17;95939.25;2090555;28;20452;-63
2023/07/20 03:29:37;;;;;;;4.35;2.13;;;;;;;17.48;59.49;95949.06;2090286;28;20053;-63
2023/07/20 03:30:38;;;;;;;4.25;2.05;;;;;;;17.49;58.94;95960.41;2090779;28;20057;-62
2023/07/20 03:31:40;;;;;;;8.73;2.45;;;;;;;17.46;59.73;95958.84;2090515;28;20061;-63
2023/07/20 03:32:42;;;;;;;5.22;2.00;;;;;;;17.45;59.52;95956.31;2089745;28;20056;-63
2023/07/20 03:33:43;;;;;;;4.03;1.88;;;;;;;17.46;59.16;95963.28;2089680;28;20056;-63
2023/07/20 03:34:44;;;;;;;5.10;2.08;;;;;;;17.41;59.31;95956.56;2089994;28;20432;-62
2023/07/20 03:35:45;;;;;;;12.07;2.10;;;;;;;17.46;59.01;95964.09;2089985;28;20048;-62
2023/07/20 03:36:47;;;;;;;3.65;1.73;;;;;;;17.41;59.42;95959.19;2090296;28;20172;-63
2023/07/20 03:37:48;;;;;;;8.32;2.00;;;;;;;17.36;58.95;95961.31;2090088;28;20516;-63
2023/07/20 03:38:50;;;;;;;5.90;1.70;;;;;;;17.22;59.67;95939.69;2089949;28;20052;-62
2023/07/20 03:39:51;;;;;;;5.90;1.80;;;;;;;17.38;59.56;95958.59;2089946;28;20045;-63
2023/07/20 03:40:52;;;;;;;5.18;2.10;;;;;;;17.37;59.59;95956.91;2089705;28;20064;-63
2023/07/20 03:41:54;;;;;;;4.63;1.98;;;;;;;17.35;59.99;95961.44;2090373;28;20101;-62
2023/07/20 03:42:55;;;;;;;4.18;1.63;;;;;;;17.33;59.07;95969.41;2089968;28;20405;-63
2023/07/20 03:43:56;;;;;;;3.72;2.08;;;;;;;17.35;59.47;95975.41;2081804;28;20084;-62
2023/07/20 03:44:57;;;;;;;3.78;1.90;;;;;;;17.35;59.94;95970.16;2090045;28;20064;-63
2023/07/20 03:45:58;;;;;;;6.25;1.60;;;;;;;17.34;59.86;95973.72;2089925;28;20531;-62
2023/07/20 03:46:59;;;;;;;3.75;2.15;;;;;;;17.28;59.83;95958.44;2089577;28;20129;-62
2023/07/20 03:48:00;;;;;;;5.10;2.00;;;;;;;17.32;60.00;95970.38;2081665;28;20053;-62
2023/07/20 03:49:01;;;;;;;4.38;1.85;;;;;;;17.32;59.15;95973.00;2081448;28;20053;-63
2023/07/20 03:50:05;;;;;;;5.03;1.90;;;;;;;17.31;60.32;95973.94;2090075;28;20049;-62
2023/07/20 03:51:06;;;;;;;6.68;1.88;;;;;;;17.29;59.30;95972.38;2098764;28;20482;-60
2023/07/20 03:52:07;;;;;;;5.40;2.15;;;;;;;17.24;59.98;95957.00;2097576;28;20060;-59
2023/07/20 03:53:08;;;;;;;6.57;2.28;;;;;;;17.30;59.57;95971.44;2090375;28;20053;-59
2023/07/20 03:54:09;;;;;;;6.00;2.08;;;;;;;17.27;59.48;95972.50;2090315;28;20048;-59
2023/07/20 03:55:11;;;;;;;6.25;2.08;;;;;;;17.25;58.83;95969.16;2089866;28;20049;-59
2023/07/20 03:56:12;;;;;;;5.47;1.92;;;;;;;17.24;59.54;95964.88;2081971;28;20536;-60
2023/07/20 03:57:13;;;;;;;5.50;2.58;;;;;;;17.19;59.18;95974.88;2089904;28;20060;-59
2023/07/20 03:58:14;;;;;;;4.97;2.10;;;;;;;17.15;59.14;95976.03;2090476;28;20079;-59
2023/07/20 03:59:15;;;;;;;3.25;1.65;;;;;;;17.10;58.53;95978.97;2089857;28;20053;-60
2023/07/20 04:00:17;;;;;;;4.68;2.10;;;;;;;17.08;58.38;95977.41;2081747;28;20509;-59
2023/07/20 04:01:18;;;;;;;3.47;1.80;;;;;;;17.02;58.94;95970.84;2089828;28;20433;-59
2023/07/20 04:02:19;;;;;;;7.47;2.40;;;;;;;17.03;58.67;95967.28;2090601;28;20057;-59
2023/07/20 04:03:20;;;;;;;3.33;1.83;;;;;;;17.02;58.66;95965.59;2089554;28;20052;-59
2023/07/20 04:04:22;;;;;;;3.60;2.00;;;;;;;17.00;58.51;95972.75;2089809;28;20056;-59
2023/07/20 04:05:23;;;;;;;4.47;2.03;;;;;;;17.00;58.02;95970.13;2089564;28;20440;-60
2023/07/20 04:06:24;;;;;;;3.42;1.95;;;;;;;16.99;58.10;95973.69;2081656;28;20060;-59
2023/07/20 04:07:25;;;;;;;4.68;1.95;;;;;;;16.94;57.74;95971.41;2089413;28;20059;-59
2023/07/20 04:08:26;;;;;;;6.75;1.73;;;;;;;16.95;58.29;95980.97;2090547;28;20064;-60
2023/07/20 04:09:28;;;;;;;4.68;2.00;;;;;;;16.95;57.29;95980.13;2090681;28;20045;-59
2023/07/20 04:10:29;;;;;;;5.35;1.98;;;;;;;16.94;57.28;95978.44;2090150;28;20049;-59
2023/07/20 04:11:30;;;;;;;4.82;1.92;;;;;;;16.94;57.69;95979.28;2090522;28;20037;-60
2023/07/20 04:12:31;;;;;;;2.70;1.60;;;;;;;16.93;57.39;95979.41;2089655;28;20056;-59
2023/07/20 04:13:34;;;;;;;4.35;2.15;;;;;;;16.94;58.76;95981.88;2089638;28;20510;-60
2023/07/20 04:14:35;;;;;;;4.03;1.90;;;;;;;16.96;57.80;95985.25;2090187;28;20053;-60
2023/07/20 04:15:36;;;;;;;7.95;2.00;;;;;;;16.95;57.19;95980.13;2090023;28;20053;-59
2023/07/20 04:16:37;;;;;;;5.90;2.22;;;;;;;16.94;56.84;95981.88;2090404;28;20053;-60
2023/07/20 04:17:38;;;;;;;5.55;2.03;;;;;;;16.92;56.35;95977.69;2090560;28;20048;-59
2023/07/20 04:18:40;;;;;;;3.83;2.10;;;;;;;16.94;55.25;95987.13;2090503;28;20036;-59
2023/07/20 04:19:41;;;;;;;5.90;2.05;;;;;;;16.96;55.53;95985.25;2089439;28;20060;-60
2023/07/20 04:20:42;;;;;;;5.50;2.10;;;;;;;17.01;56.32;95986.72;2090142;28;20593;-60
2023/07/20 04:21:43;;;;;;;4.90;2.25;;;;;;;16.95;55.55;95980.13;2089549;28;20148;-60
2023/07/20 04:22:45;;;;;;;5.97;2.10;;;;;;;16.96;56.14;95985.25;2081004;28;20508;-58
2023/07/20 04:23:49;;;;;;;3.60;1.85;;;;;;;16.88;55.58;95968.41;2082533;28;20453;-59
2023/07/20 04:24:50;;;;;;;5.90;2.22;;;;;;;16.98;56.23;95988.59;2089705;28;20044;-60
2023/07/20 04:25:51;;;;;;;4.05;1.80;;;;;;;16.98;55.30;95978.09;2081415;28;20061;-59
2023/07/20 04:26:53;;;;;;;4.28;2.05;;;;;;;17.04;55.55;95983.84;2082254;28;20604;-59
2023/07/20 04:27:55;;;;;;;4.50;2.42;;;;;;;17.05;56.39;95988.16;2081393;28;20057;-59
2023/07/20 04:28:56;;;;;;;4.78;2.30;;;;;;;17.05;56.29;95981.09;2081423;28;20509;-59
2023/07/20 04:30:20;;;;;;;3.38;2.03;;;;;;;17.03;56.06;95985.66;2084517;28;20054;-58
2023/07/20 04:31:21;;;;;;;6.93;2.15;;;;;;;17.02;54.98;95985.75;2090009;28;20139;-59
2023/07/20 04:32:22;;;;;;;9.90;1.98;;;;;;;17.00;54.81;95985.88;2089864;28;20456;-59
2023/07/20 04:33:23;;;;;;;4.88;1.90;;;;;;;16.95;55.13;95983.59;2089168;28;20053;-59
2023/07/20 04:34:25;;;;;;;5.68;1.88;;;;;;;16.95;55.39;95988.84;2081851;28;20053;-59
2023/07/20 04:35:45;;;;;;;3.95;1.85;;;;;;;16.91;55.41;95981.28;2081045;28;20057;-58
2023/07/20 04:36:47;;;;;;;3.75;1.70;;;;;;;16.88;55.83;95987.59;2083697;28;20049;-58
2023/07/20 04:37:48;;;;;;;5.47;1.80;;;;;;;16.88;54.97;95987.59;2081266;28;20057;-58
2023/07/20 04:38:52;;;;;;;7.68;2.10;;;;;;;16.82;55.56;95981.97;2089436;28;20198;-58
2023/07/20 04:39:55;;;;;;;4.03;1.80;;;;;;;16.78;57.09;95996.22;2081141;28;20050;-59
2023/07/20 04:40:56;;;;;;;4.47;2.08;;;;;;;16.61;56.56;95973.81;2081298;28;20052;-60
2023/07/20 04:41:57;;;;;;;6.32;1.73;;;;;;;16.64;55.43;95991.94;2089674;28;20052;-59
2023/07/20 04:42:59;;;;;;;5.25;1.90;;;;;;;16.55;56.44;95985.59;2097242;28;20432;-59
2023/07/20 04:44:00;;;;;;;3.95;2.15;;;;;;;16.59;56.28;95992.28;2089332;28;20080;-60
2023/07/20 04:45:04;;;;;;;4.28;1.70;;;;;;;16.58;56.22;96005.50;2089506;28;20045;-60
2023/07/20 04:46:06;;;;;;;3.20;1.80;;;;;;;16.57;55.88;96002.03;2081312;28;20057;-60
2023/07/20 04:47:09;;;;;;;4.70;2.15;;;;;;;16.52;56.13;96007.59;2081498;28;20056;-59
2023/07/20 04:48:14;;;;;;;9.90;1.80;;;;;;;16.52;56.95;96002.38;2081509;28;20045;-59
2023/07/20 04:49:20;;;;;;;5.30;2.10;;;;;;;16.54;57.06;96002.25;2089819;28;20045;-59
2023/07/20 04:50:25;;;;;;;4.85;2.00;;;;;;;16.60;57.47;96004.44;2089519;28;20052;-59
2023/07/20 04:51:26;;;;;;;4.30;1.80;;;;;;;16.61;57.73;96002.66;2089092;28;20060;-60
2023/07/20 04:52:29;;;;;;;3.78;1.90;;;;;;;16.56;56.12;96002.97;2082059;28;20049;-60
2023/07/20 04:53:32;;;;;;;5.18;2.00;;;;;;;16.60;57.72;96008.84;2081603;28;20052;-59
2023/07/20 04:54:33;;;;;;;5.07;2.00;;;;;;;16.65;57.61;96006.72;2081142;28;20057;-60